sensor_id;sensor_type;location;lat;lon;timestamp;pressure;altitude;pressure_sealevel;temperature;humidity
21401;BME280;18038;50.166;18.908;2022-11-11T00:01:56;99388.16;;;6.71;74.56
21401;BME280;18038;50.166;18.908;2022-11-11T00:04:20;99390.97;;;6.58;74.59
21401;BME280;18038;50.166;18.908;2022-11-11T00:06:46;99395.31;;;6.59;75.12
21401;BME280;18038;50.166;18.908;2022-11-11T00:09:12;99393.34;;;6.61;74.84
21401;BME280;18038;50.166;18.908;2022-11-11T00:11:39;99400.88;;;6.56;75.34
21401;BME280;18038;50.166;18.908;2022-11-11T00:14:05;99403.25;;;6.59;75.26
21401;BME280;18038;50.166;18.908;2022-11-11T00:16:29;99404.34;;;6.45;75.69
21401;BME280;18038;50.166;18.908;2022-11-11T00:19:15;99407.88;;;6.46;75.49
21401;BME280;18038;50.166;18.908;2022-11-11T00:21:52;99418.94;;;6.51;75.71
21401;BME280;18038;50.166;18.908;2022-11-11T00:24:30;99419.03;;;6.49;76.05
21401;BME280;18038;50.166;18.908;2022-11-11T00:27:10;99415.81;;;6.46;75.92
21401;BME280;18038;50.166;18.908;2022-11-11T00:29:38;99425.16;;;6.50;76.07
21401;BME280;18038;50.166;18.908;2022-11-11T00:32:04;99423.25;;;6.52;76.05
21401;BME280;18038;50.166;18.908;2022-11-11T00:34:41;99422.75;;;6.58;76.13
21401;BME280;18038;50.166;18.908;2022-11-11T00:37:26;99433.53;;;6.66;75.55
21401;BME280;18038;50.166;18.908;2022-11-11T00:39:49;99434.72;;;6.73;75.62
21401;BME280;18038;50.166;18.908;2022-11-11T00:42:16;99430.78;;;6.68;75.75
21401;BME280;18038;50.166;18.908;2022-11-11T00:44:40;99428.72;;;6.71;75.49
21401;BME280;18038;50.166;18.908;2022-11-11T00:47:05;99430.53;;;6.71;76.16
21401;BME280;18038;50.166;18.908;2022-11-11T00:49:43;99429.44;;;6.73;75.89
21401;BME280;18038;50.166;18.908;2022-11-11T00:52:22;99436.28;;;6.76;75.67
21401;BME280;18038;50.166;18.908;2022-11-11T00:54:46;99433.94;;;6.61;76.33
21401;BME280;18038;50.166;18.908;2022-11-11T00:57:10;99433.75;;;6.74;76.08
21401;BME280;18038;50.166;18.908;2022-11-11T00:59:38;99426.69;;;6.75;76.22
21401;BME280;18038;50.166;18.908;2022-11-11T01:02:03;99428.22;;;6.77;76.46
21401;BME280;18038;50.166;18.908;2022-11-11T01:04:28;99422.78;;;6.79;76.18
21401;BME280;18038;50.166;18.908;2022-11-11T01:06:53;99419.66;;;6.85;76.01
21401;BME280;18038;50.166;18.908;2022-11-11T01:09:17;99419.59;;;6.96;75.30
21401;BME280;18038;50.166;18.908;2022-11-11T01:11:42;99414.88;;;7.00;75.82
21401;BME280;18038;50.166;18.908;2022-11-11T01:14:07;99414.56;;;6.93;75.70
21401;BME280;18038;50.166;18.908;2022-11-11T01:16:34;99417.00;;;7.06;75.50
21401;BME280;18038;50.166;18.908;2022-11-11T01:18:59;99410.97;;;7.15;75.13
21401;BME280;18038;50.166;18.908;2022-11-11T01:21:24;99410.88;;;7.05;74.99
21401;BME280;18038;50.166;18.908;2022-11-11T01:23:51;99405.56;;;7.17;74.44
21401;BME280;18038;50.166;18.908;2022-11-11T01:26:21;99396.09;;;7.24;74.35
21401;BME280;18038;50.166;18.908;2022-11-11T01:28:54;99401.28;;;7.25;74.36
21401;BME280;18038;50.166;18.908;2022-11-11T01:31:21;99403.09;;;7.25;73.98
21401;BME280;18038;50.166;18.908;2022-11-11T01:33:49;99395.47;;;7.32;74.11
21401;BME280;18038;50.166;18.908;2022-11-11T01:36:18;99405.34;;;7.29;74.32
21401;BME280;18038;50.166;18.908;2022-11-11T01:38:47;99406.22;;;7.30;73.83
21401;BME280;18038;50.166;18.908;2022-11-11T01:41:16;99403.34;;;7.43;73.72
21401;BME280;18038;50.166;18.908;2022-11-11T01:44:01;99415.81;;;7.52;73.49
21401;BME280;18038;50.166;18.908;2022-11-11T01:46:39;99415.81;;;7.52;73.49
21401;BME280;18038;50.166;18.908;2022-11-11T01:49:22;99419.00;;;7.46;73.89
21401;BME280;18038;50.166;18.908;2022-11-11T01:51:56;99406.25;;;7.40;73.86
21401;BME280;18038;50.166;18.908;2022-11-11T01:54:34;99407.75;;;7.33;74.29
21401;BME280;18038;50.166;18.908;2022-11-11T01:57:07;99405.59;;;7.26;74.86
21401;BME280;18038;50.166;18.908;2022-11-11T01:59:44;99406.25;;;7.40;74.15
21401;BME280;18038;50.166;18.908;2022-11-11T02:02:18;99405.31;;;7.41;74.03
21401;BME280;18038;50.166;18.908;2022-11-11T02:04:57;99407.53;;;7.45;73.85
21401;BME280;18038;50.166;18.908;2022-11-11T02:07:36;99407.72;;;7.54;74.26
21401;BME280;18038;50.166;18.908;2022-11-11T02:10:08;99409.53;;;7.53;74.10
21401;BME280;18038;50.166;18.908;2022-11-11T02:12:33;99414.00;;;7.53;74.26
21401;BME280;18038;50.166;18.908;2022-11-11T02:15:11;99412.19;;;7.53;74.23
21401;BME280;18038;50.166;18.908;2022-11-11T02:17:35;99418.13;;;7.66;74.23
21401;BME280;18038;50.166;18.908;2022-11-11T02:20:04;99420.38;;;7.71;74.13
21401;BME280;18038;50.166;18.908;2022-11-11T02:22:38;99412.81;;;7.66;73.99
21401;BME280;18038;50.166;18.908;2022-11-11T02:25:16;99424.59;;;7.73;73.95
21401;BME280;18038;50.166;18.908;2022-11-11T02:27:50;99437.75;;;7.85;73.87
21401;BME280;18038;50.166;18.908;2022-11-11T02:30:20;99437.63;;;7.86;73.94
21401;BME280;18038;50.166;18.908;2022-11-11T02:32:47;99428.50;;;7.79;74.24
21401;BME280;18038;50.166;18.908;2022-11-11T02:35:16;99424.03;;;7.80;74.27
21401;BME280;18038;50.166;18.908;2022-11-11T02:37:45;99429.19;;;7.71;74.40
21401;BME280;18038;50.166;18.908;2022-11-11T02:40:19;99425.75;;;7.81;74.38
21401;BME280;18038;50.166;18.908;2022-11-11T02:42:48;99433.16;;;7.87;74.05
21401;BME280;18038;50.166;18.908;2022-11-11T02:45:13;99431.88;;;7.81;74.11
21401;BME280;18038;50.166;18.908;2022-11-11T02:47:38;99433.31;;;7.64;74.34
21401;BME280;18038;50.166;18.908;2022-11-11T02:50:04;99434.13;;;7.55;74.75
21401;BME280;18038;50.166;18.908;2022-11-11T02:52:30;99432.84;;;7.49;74.82
21401;BME280;18038;50.166;18.908;2022-11-11T02:54:55;99441.09;;;7.35;75.65
21401;BME280;18038;50.166;18.908;2022-11-11T02:57:22;99442.16;;;7.44;75.33
21401;BME280;18038;50.166;18.908;2022-11-11T02:59:47;99439.03;;;7.39;75.45
21401;BME280;18038;50.166;18.908;2022-11-11T03:02:14;99441.09;;;7.35;75.69
21401;BME280;18038;50.166;18.908;2022-11-11T03:04:39;99438.66;;;7.43;75.47
21401;BME280;18038;50.166;18.908;2022-11-11T03:07:05;99439.81;;;7.50;74.84
21401;BME280;18038;50.166;18.908;2022-11-11T03:09:29;99432.44;;;7.54;74.92
21401;BME280;18038;50.166;18.908;2022-11-11T03:11:53;99436.41;;;7.39;75.71
21401;BME280;18038;50.166;18.908;2022-11-11T03:14:21;99428.69;;;7.15;76.33
21401;BME280;18038;50.166;18.908;2022-11-11T03:16:46;99429.59;;;6.93;77.12
21401;BME280;18038;50.166;18.908;2022-11-11T03:19:32;99430.94;;;6.87;77.79
21401;BME280;18038;50.166;18.908;2022-11-11T03:21:57;99426.47;;;6.88;77.69
21401;BME280;18038;50.166;18.908;2022-11-11T03:24:39;99432.25;;;6.93;77.49
21401;BME280;18038;50.166;18.908;2022-11-11T03:27:16;99430.91;;;6.98;76.92
21401;BME280;18038;50.166;18.908;2022-11-11T03:29:44;99430.31;;;6.95;77.17
21401;BME280;18038;50.166;18.908;2022-11-11T03:32:08;99429.19;;;6.76;78.06
21401;BME280;18038;50.166;18.908;2022-11-11T03:34:33;99430.53;;;6.71;77.99
21401;BME280;18038;50.166;18.908;2022-11-11T03:36:58;99432.19;;;6.72;78.00
21401;BME280;18038;50.166;18.908;2022-11-11T03:39:35;99440.28;;;6.70;78.04
21401;BME280;18038;50.166;18.908;2022-11-11T03:42:01;99428.25;;;6.66;78.52
21401;BME280;18038;50.166;18.908;2022-11-11T03:44:25;99421.19;;;6.55;78.57
21401;BME280;18038;50.166;18.908;2022-11-11T03:46:53;99423.72;;;6.57;78.63
21401;BME280;18038;50.166;18.908;2022-11-11T03:49:18;99426.72;;;6.52;78.87
21401;BME280;18038;50.166;18.908;2022-11-11T03:51:42;99430.94;;;6.55;78.81
21401;BME280;18038;50.166;18.908;2022-11-11T03:54:07;99421.31;;;6.54;78.57
21401;BME280;18038;50.166;18.908;2022-11-11T03:56:46;99425.91;;;6.52;79.01
21401;BME280;18038;50.166;18.908;2022-11-11T03:59:10;99422.53;;;6.50;78.82
21401;BME280;18038;50.166;18.908;2022-11-11T04:01:45;99426.88;;;6.51;79.03
21401;BME280;18038;50.166;18.908;2022-11-11T04:04:29;99421.91;;;6.57;78.51
21401;BME280;18038;50.166;18.908;2022-11-11T04:07:19;99407.38;;;6.52;78.68
21401;BME280;18038;50.166;18.908;2022-11-11T04:10:14;99408.09;;;6.54;78.76
21401;BME280;18038;50.166;18.908;2022-11-11T04:12:48;99414.47;;;6.51;78.79
21401;BME280;18038;50.166;18.908;2022-11-11T04:15:29;99399.47;;;6.40;79.08
21401;BME280;18038;50.166;18.908;2022-11-11T04:18:10;99407.72;;;6.47;78.60
21401;BME280;18038;50.166;18.908;2022-11-11T04:20:37;99415.56;;;6.49;78.29
21401;BME280;18038;50.166;18.908;2022-11-11T04:23:15;99411.75;;;6.30;78.45
21401;BME280;18038;50.166;18.908;2022-11-11T04:25:39;99420.88;;;6.37;78.46
21401;BME280;18038;50.166;18.908;2022-11-11T04:28:10;99422.44;;;6.40;78.18
21401;BME280;18038;50.166;18.908;2022-11-11T04:30:48;99412.69;;;6.29;78.40
21401;BME280;18038;50.166;18.908;2022-11-11T04:33:14;99414.97;;;6.34;77.78
21401;BME280;18038;50.166;18.908;2022-11-11T04:35:48;99420.19;;;6.24;77.99
21401;BME280;18038;50.166;18.908;2022-11-11T04:38:13;99423.53;;;6.26;77.78
21401;BME280;18038;50.166;18.908;2022-11-11T04:40:50;99426.03;;;6.39;77.51
21401;BME280;18038;50.166;18.908;2022-11-11T04:43:29;99433.50;;;6.34;77.37
21401;BME280;18038;50.166;18.908;2022-11-11T04:46:14;99438.34;;;6.40;76.81
21401;BME280;18038;50.166;18.908;2022-11-11T04:48:37;99441.09;;;6.38;77.17
21401;BME280;18038;50.166;18.908;2022-11-11T04:51:10;99444.19;;;6.55;76.74
21401;BME280;18038;50.166;18.908;2022-11-11T04:53:35;99456.59;;;6.54;76.83
21401;BME280;18038;50.166;18.908;2022-11-11T04:56:00;99455.59;;;6.55;77.01
21401;BME280;18038;50.166;18.908;2022-11-11T04:58:39;99453.34;;;6.51;76.82
21401;BME280;18038;50.166;18.908;2022-11-11T05:01:04;99452.47;;;6.50;76.79
21401;BME280;18038;50.166;18.908;2022-11-11T05:03:45;99458.88;;;6.36;77.71
21401;BME280;18038;50.166;18.908;2022-11-11T05:06:30;99455.31;;;6.37;77.72
21401;BME280;18038;50.166;18.908;2022-11-11T05:09:07;99453.09;;;6.43;77.64
21401;BME280;18038;50.166;18.908;2022-11-11T05:11:41;99460.59;;;6.37;77.74
21401;BME280;18038;50.166;18.908;2022-11-11T05:14:06;99461.28;;;6.39;77.29
21401;BME280;18038;50.166;18.908;2022-11-11T05:16:46;99461.75;;;6.45;77.24
21401;BME280;18038;50.166;18.908;2022-11-11T05:19:23;99472.09;;;6.48;76.78
21401;BME280;18038;50.166;18.908;2022-11-11T05:22:10;99473.56;;;6.52;76.51
21401;BME280;18038;50.166;18.908;2022-11-11T05:24:38;99474.06;;;6.46;76.69
21401;BME280;18038;50.166;18.908;2022-11-11T05:27:16;99479.34;;;6.34;77.12
21401;BME280;18038;50.166;18.908;2022-11-11T05:29:47;99487.66;;;6.41;76.92
21401;BME280;18038;50.166;18.908;2022-11-11T05:32:16;99480.19;;;6.46;76.79
21401;BME280;18038;50.166;18.908;2022-11-11T05:34:48;99488.38;;;6.43;76.89
21401;BME280;18038;50.166;18.908;2022-11-11T05:37:22;99489.06;;;6.45;76.57
21401;BME280;18038;50.166;18.908;2022-11-11T05:39:47;99492.41;;;6.58;76.09
21401;BME280;18038;50.166;18.908;2022-11-11T05:42:15;99505.25;;;6.74;75.63
21401;BME280;18038;50.166;18.908;2022-11-11T05:44:39;99509.63;;;6.75;75.17
21401;BME280;18038;50.166;18.908;2022-11-11T05:47:09;99520.19;;;6.87;74.82
21401;BME280;18038;50.166;18.908;2022-11-11T05:49:33;99514.28;;;6.83;74.95
21401;BME280;18038;50.166;18.908;2022-11-11T05:51:58;99509.63;;;6.75;75.37
21401;BME280;18038;50.166;18.908;2022-11-11T05:54:33;99513.22;;;6.85;75.12
21401;BME280;18038;50.166;18.908;2022-11-11T05:56:58;99506.34;;;6.83;74.84
21401;BME280;18038;50.166;18.908;2022-11-11T05:59:27;99505.59;;;6.92;75.06
21401;BME280;18038;50.166;18.908;2022-11-11T06:01:53;99507.78;;;6.87;75.29
21401;BME280;18038;50.166;18.908;2022-11-11T06:04:18;99506.94;;;6.87;75.13
21401;BME280;18038;50.166;18.908;2022-11-11T06:06:42;99507.41;;;6.92;74.41
21401;BME280;18038;50.166;18.908;2022-11-11T06:09:11;99517.38;;;6.99;74.02
21401;BME280;18038;50.166;18.908;2022-11-11T06:11:38;99512.91;;;7.00;73.98
21401;BME280;18038;50.166;18.908;2022-11-11T06:14:03;99511.97;;;7.01;73.84
21401;BME280;18038;50.166;18.908;2022-11-11T06:16:28;99520.03;;;6.99;74.16
21401;BME280;18038;50.166;18.908;2022-11-11T06:18:53;99524.50;;;6.99;74.03
21401;BME280;18038;50.166;18.908;2022-11-11T06:21:24;99512.22;;;7.09;73.51
21401;BME280;18038;50.166;18.908;2022-11-11T06:24:21;99512.06;;;7.11;73.88
21401;BME280;18038;50.166;18.908;2022-11-11T06:26:51;99507.38;;;7.14;73.38
21401;BME280;18038;50.166;18.908;2022-11-11T06:29:17;99503.16;;;7.12;73.73
21401;BME280;18038;50.166;18.908;2022-11-11T06:31:42;99499.84;;;7.19;73.57
21401;BME280;18038;50.166;18.908;2022-11-11T06:34:07;99503.16;;;7.12;74.20
21401;BME280;18038;50.166;18.908;2022-11-11T06:36:34;99508.16;;;7.26;73.61
21401;BME280;18038;50.166;18.908;2022-11-11T06:38:58;99501.19;;;7.25;73.42
21401;BME280;18038;50.166;18.908;2022-11-11T06:41:23;99501.69;;;7.40;72.81
21401;BME280;18038;50.166;18.908;2022-11-11T06:43:52;99506.75;;;7.43;72.26
21401;BME280;18038;50.166;18.908;2022-11-11T06:46:22;99500.41;;;7.55;72.27
21401;BME280;18038;50.166;18.908;2022-11-11T06:48:48;99504.53;;;7.48;72.01
21401;BME280;18038;50.166;18.908;2022-11-11T06:51:14;99509.09;;;7.57;72.04
21401;BME280;18038;50.166;18.908;2022-11-11T06:53:39;99510.56;;;7.71;71.32
21401;BME280;18038;50.166;18.908;2022-11-11T06:56:06;99503.81;;;7.67;71.13
21401;BME280;18038;50.166;18.908;2022-11-11T06:58:33;99509.13;;;7.67;71.52
21401;BME280;18038;50.166;18.908;2022-11-11T07:01:03;99513.09;;;7.72;71.52
21401;BME280;18038;50.166;18.908;2022-11-11T07:03:32;99499.75;;;7.84;70.90
21401;BME280;18038;50.166;18.908;2022-11-11T07:05:59;99497.75;;;7.76;71.66
21401;BME280;18038;50.166;18.908;2022-11-11T07:08:26;99500.88;;;7.81;71.51
21401;BME280;18038;50.166;18.908;2022-11-11T07:10:51;99509.56;;;7.93;71.06
21401;BME280;18038;50.166;18.908;2022-11-11T07:13:15;99503.94;;;8.07;69.85
21401;BME280;18038;50.166;18.908;2022-11-11T07:15:40;99505.34;;;8.11;69.84
21401;BME280;18038;50.166;18.908;2022-11-11T07:18:16;99508.50;;;8.26;69.36
21401;BME280;18038;50.166;18.908;2022-11-11T07:20:40;99501.41;;;8.46;68.46
21401;BME280;18038;50.166;18.908;2022-11-11T07:23:16;99502.72;;;8.61;67.64
21401;BME280;18038;50.166;18.908;2022-11-11T07:25:42;99502.66;;;8.92;66.85
21401;BME280;18038;50.166;18.908;2022-11-11T07:28:06;99506.34;;;9.30;65.71
21401;BME280;18038;50.166;18.908;2022-11-11T07:30:32;99508.72;;;9.43;64.75
21401;BME280;18038;50.166;18.908;2022-11-11T07:32:56;99507.84;;;9.72;64.36
21401;BME280;18038;50.166;18.908;2022-11-11T07:35:23;99510.94;;;10.24;62.90
21401;BME280;18038;50.166;18.908;2022-11-11T07:37:48;99516.03;;;10.72;61.38
21401;BME280;18038;50.166;18.908;2022-11-11T07:40:20;99511.41;;;10.92;60.07
21401;BME280;18038;50.166;18.908;2022-11-11T07:42:45;99502.59;;;11.10;60.12
21401;BME280;18038;50.166;18.908;2022-11-11T07:45:12;99504.75;;;11.86;58.34
21401;BME280;18038;50.166;18.908;2022-11-11T07:47:37;99495.34;;;12.00;57.89
21401;BME280;18038;50.166;18.908;2022-11-11T07:50:09;99492.34;;;12.37;57.06
21401;BME280;18038;50.166;18.908;2022-11-11T07:52:38;99490.81;;;12.26;57.19
21401;BME280;18038;50.166;18.908;2022-11-11T07:55:08;99489.50;;;12.30;56.62
21401;BME280;18038;50.166;18.908;2022-11-11T07:57:35;99491.91;;;12.50;56.20
21401;BME280;18038;50.166;18.908;2022-11-11T08:00:01;99485.91;;;12.56;55.65
21401;BME280;18038;50.166;18.908;2022-11-11T08:02:27;99492.03;;;12.40;55.80
21401;BME280;18038;50.166;18.908;2022-11-11T08:04:51;99492.75;;;12.16;56.75
21401;BME280;18038;50.166;18.908;2022-11-11T08:07:17;99493.81;;;11.97;56.69
21401;BME280;18038;50.166;18.908;2022-11-11T08:09:48;99487.28;;;11.74;57.36
21401;BME280;18038;50.166;18.908;2022-11-11T08:12:13;99489.28;;;11.72;57.33
21401;BME280;18038;50.166;18.908;2022-11-11T08:14:51;99491.25;;;11.26;58.92
21401;BME280;18038;50.166;18.908;2022-11-11T08:17:16;99493.69;;;11.01;59.72
21401;BME280;18038;50.166;18.908;2022-11-11T08:19:40;99483.63;;;11.13;59.41
21401;BME280;18038;50.166;18.908;2022-11-11T08:22:26;99484.78;;;11.28;59.41
21401;BME280;18038;50.166;18.908;2022-11-11T08:24:54;99483.31;;;11.34;59.31
21401;BME280;18038;50.166;18.908;2022-11-11T08:27:34;99479.56;;;11.27;58.99
21401;BME280;18038;50.166;18.908;2022-11-11T08:30:08;99476.69;;;11.20;59.53
21401;BME280;18038;50.166;18.908;2022-11-11T08:32:35;99485.34;;;10.41;61.07
21401;BME280;18038;50.166;18.908;2022-11-11T08:35:05;99501.81;;;10.82;61.06
21401;BME280;18038;50.166;18.908;2022-11-11T08:37:30;99492.94;;;11.09;59.92
21401;BME280;18038;50.166;18.908;2022-11-11T08:39:58;99494.44;;;11.29;59.55
21401;BME280;18038;50.166;18.908;2022-11-11T08:42:35;99489.22;;;10.74;61.28
21401;BME280;18038;50.166;18.908;2022-11-11T08:45:01;99498.63;;;10.50;61.94
21401;BME280;18038;50.166;18.908;2022-11-11T08:47:26;99497.91;;;10.76;60.98
21401;BME280;18038;50.166;18.908;2022-11-11T08:49:51;99512.03;;;10.86;61.24
21401;BME280;18038;50.166;18.908;2022-11-11T08:52:17;99499.06;;;11.45;59.89
21401;BME280;18038;50.166;18.908;2022-11-11T08:54:42;99505.97;;;11.74;58.55
21401;BME280;18038;50.166;18.908;2022-11-11T08:57:09;99499.69;;;12.35;57.00
21401;BME280;18038;50.166;18.908;2022-11-11T08:59:41;99497.53;;;12.81;55.73
21401;BME280;18038;50.166;18.908;2022-11-11T09:02:10;99488.16;;;12.85;56.01
21401;BME280;18038;50.166;18.908;2022-11-11T09:04:35;99494.38;;;12.43;56.26
21401;BME280;18038;50.166;18.908;2022-11-11T09:07:13;99512.88;;;11.84;58.39
21401;BME280;18038;50.166;18.908;2022-11-11T09:09:38;99505.41;;;11.26;59.59
21401;BME280;18038;50.166;18.908;2022-11-11T09:12:11;99504.13;;;11.30;59.83
21401;BME280;18038;50.166;18.908;2022-11-11T09:14:42;99513.50;;;11.34;59.65
21401;BME280;18038;50.166;18.908;2022-11-11T09:17:21;99527.13;;;11.13;60.34
21401;BME280;18038;50.166;18.908;2022-11-11T09:19:50;99518.47;;;11.11;60.69
21401;BME280;18038;50.166;18.908;2022-11-11T09:22:20;99509.13;;;10.79;61.65
21401;BME280;18038;50.166;18.908;2022-11-11T09:24:45;99509.31;;;10.68;61.84
21401;BME280;18038;50.166;18.908;2022-11-11T09:27:17;99520.31;;;10.55;62.43
21401;BME280;18038;50.166;18.908;2022-11-11T09:29:41;99528.84;;;10.69;62.64
21401;BME280;18038;50.166;18.908;2022-11-11T09:32:12;99517.81;;;10.82;62.63
21401;BME280;18038;50.166;18.908;2022-11-11T09:34:36;99514.97;;;10.65;62.66
21401;BME280;18038;50.166;18.908;2022-11-11T09:37:05;99515.13;;;10.64;62.89
21401;BME280;18038;50.166;18.908;2022-11-11T09:39:30;99511.94;;;10.50;63.23
21401;BME280;18038;50.166;18.908;2022-11-11T09:42:04;99520.47;;;10.54;63.00
21401;BME280;18038;50.166;18.908;2022-11-11T09:45:13;99522.19;;;10.45;62.84
21401;BME280;18038;50.166;18.908;2022-11-11T09:47:58;99517.13;;;10.79;61.83
21401;BME280;18038;50.166;18.908;2022-11-11T09:50:36;99528.19;;;10.85;62.12
21401;BME280;18038;50.166;18.908;2022-11-11T09:53:13;99523.66;;;10.67;62.22
21401;BME280;18038;50.166;18.908;2022-11-11T09:55:51;99513.28;;;10.64;62.68
21401;BME280;18038;50.166;18.908;2022-11-11T09:58:30;99516.44;;;10.77;62.11
21401;BME280;18038;50.166;18.908;2022-11-11T10:01:08;99513.69;;;10.69;62.49
21401;BME280;18038;50.166;18.908;2022-11-11T10:03:41;99524.25;;;11.07;61.57
21401;BME280;18038;50.166;18.908;2022-11-11T10:06:20;99519.13;;;11.49;60.15
21401;BME280;18038;50.166;18.908;2022-11-11T10:08:57;99514.91;;;12.08;58.75
21401;BME280;18038;50.166;18.908;2022-11-11T10:11:42;99522.47;;;12.13;57.57
21401;BME280;18038;50.166;18.908;2022-11-11T10:14:16;99526.91;;;12.65;56.60
21401;BME280;18038;50.166;18.908;2022-11-11T10:16:57;99524.25;;;13.32;54.25
21401;BME280;18038;50.166;18.908;2022-11-11T10:19:50;99531.13;;;13.59;53.54
21401;BME280;18038;50.166;18.908;2022-11-11T10:22:34;99527.38;;;14.17;52.03
21401;BME280;18038;50.166;18.908;2022-11-11T10:25:13;99522.91;;;13.85;53.18
21401;BME280;18038;50.166;18.908;2022-11-11T10:27:47;99523.47;;;12.97;55.12
21401;BME280;18038;50.166;18.908;2022-11-11T10:30:19;99529.22;;;12.25;57.77
21401;BME280;18038;50.166;18.908;2022-11-11T10:32:58;99526.63;;;12.42;57.13
21401;BME280;18038;50.166;18.908;2022-11-11T10:35:28;99516.28;;;12.13;58.13
21401;BME280;18038;50.166;18.908;2022-11-11T10:38:12;99521.78;;;12.88;56.81
21401;BME280;18038;50.166;18.908;2022-11-11T10:40:52;99517.56;;;13.60;54.44
21401;BME280;18038;50.166;18.908;2022-11-11T10:43:22;99515.72;;;14.49;52.08
21401;BME280;18038;50.166;18.908;2022-11-11T10:45:57;99517.19;;;14.60;51.39
21401;BME280;18038;50.166;18.908;2022-11-11T10:48:39;99512.94;;;15.05;50.72
21401;BME280;18038;50.166;18.908;2022-11-11T10:51:12;99501.13;;;14.52;51.39
21401;BME280;18038;50.166;18.908;2022-11-11T10:53:47;99506.84;;;13.77;52.76
21401;BME280;18038;50.166;18.908;2022-11-11T10:56:35;99503.69;;;14.45;51.84
21401;BME280;18038;50.166;18.908;2022-11-11T10:59:16;99502.47;;;15.18;49.99
21401;BME280;18038;50.166;18.908;2022-11-11T11:01:53;99498.97;;;14.87;50.55
21401;BME280;18038;50.166;18.908;2022-11-11T11:04:34;99493.50;;;15.26;49.41
21401;BME280;18038;50.166;18.908;2022-11-11T11:07:07;99491.63;;;14.81;49.97
21401;BME280;18038;50.166;18.908;2022-11-11T11:09:44;99495.00;;;15.06;49.75
21401;BME280;18038;50.166;18.908;2022-11-11T11:12:19;99500.06;;;15.01;50.01
21401;BME280;18038;50.166;18.908;2022-11-11T11:14:53;99496.09;;;14.57;50.53
21401;BME280;18038;50.166;18.908;2022-11-11T11:17:35;99492.66;;;14.40;51.36
21401;BME280;18038;50.166;18.908;2022-11-11T11:20:12;99493.91;;;13.97;52.17
21401;BME280;18038;50.166;18.908;2022-11-11T11:22:48;99489.47;;;14.28;51.56
21401;BME280;18038;50.166;18.908;2022-11-11T11:25:18;99490.91;;;14.00;52.54
21401;BME280;18038;50.166;18.908;2022-11-11T11:27:44;99492.81;;;14.30;52.37
21401;BME280;18038;50.166;18.908;2022-11-11T11:30:16;99502.16;;;14.51;50.79
21401;BME280;18038;50.166;18.908;2022-11-11T11:32:57;99501.22;;;14.19;51.60
21401;BME280;18038;50.166;18.908;2022-11-11T11:35:36;99497.91;;;14.09;52.04
21401;BME280;18038;50.166;18.908;2022-11-11T11:38:10;99494.00;;;14.28;51.79
21401;BME280;18038;50.166;18.908;2022-11-11T11:40:48;99505.25;;;14.23;51.44
21401;BME280;18038;50.166;18.908;2022-11-11T11:43:25;99501.81;;;14.54;51.45
21401;BME280;18038;50.166;18.908;2022-11-11T11:45:57;99496.97;;;14.81;50.45
21401;BME280;18038;50.166;18.908;2022-11-11T11:48:50;99495.22;;;14.09;51.42
21401;BME280;18038;50.166;18.908;2022-11-11T11:51:50;99495.41;;;14.16;51.52
21401;BME280;18038;50.166;18.908;2022-11-11T11:54:54;99490.56;;;14.03;51.79
21401;BME280;18038;50.166;18.908;2022-11-11T11:57:49;99483.94;;;13.50;52.73
21401;BME280;18038;50.166;18.908;2022-11-11T12:00:29;99481.91;;;13.68;52.69
21401;BME280;18038;50.166;18.908;2022-11-11T12:03:30;99478.03;;;13.21;53.35
21401;BME280;18038;50.166;18.908;2022-11-11T12:06:16;99487.22;;;13.19;54.00
21401;BME280;18038;50.166;18.908;2022-11-11T12:09:00;99488.25;;;13.10;54.67
21401;BME280;18038;50.166;18.908;2022-11-11T12:11:41;99479.19;;;13.11;55.01
21401;BME280;18038;50.166;18.908;2022-11-11T12:14:45;99480.59;;;13.48;54.60
21401;BME280;18038;50.166;18.908;2022-11-11T12:17:53;99487.00;;;12.88;55.67
21401;BME280;18038;50.166;18.908;2022-11-11T12:20:40;99475.16;;;12.98;55.68
21401;BME280;18038;50.166;18.908;2022-11-11T12:23:41;99466.91;;;12.67;56.57
21401;BME280;18038;50.166;18.908;2022-11-11T12:26:27;99464.38;;;12.58;56.16
21401;BME280;18038;50.166;18.908;2022-11-11T12:29:13;99475.19;;;12.48;57.08
21401;BME280;18038;50.166;18.908;2022-11-11T12:32:06;99471.06;;;12.62;56.37
21401;BME280;18038;50.166;18.908;2022-11-11T12:35:05;99469.75;;;12.66;56.15
21401;BME280;18038;50.166;18.908;2022-11-11T12:37:52;99455.97;;;12.44;56.41
21401;BME280;18038;50.166;18.908;2022-11-11T12:40:48;99461.34;;;12.10;57.50
21401;BME280;18038;50.166;18.908;2022-11-11T12:43:39;99461.06;;;12.21;58.30
21401;BME280;18038;50.166;18.908;2022-11-11T12:46:22;99460.72;;;12.24;58.04
21401;BME280;18038;50.166;18.908;2022-11-11T12:49:04;99455.56;;;12.23;58.32
21401;BME280;18038;50.166;18.908;2022-11-11T12:51:54;99464.28;;;12.33;58.19
21401;BME280;18038;50.166;18.908;2022-11-11T12:54:33;99465.94;;;12.26;57.71
21401;BME280;18038;50.166;18.908;2022-11-11T12:57:21;99475.41;;;12.20;58.34
21401;BME280;18038;50.166;18.908;2022-11-11T13:00:08;99469.91;;;11.96;58.55
21401;BME280;18038;50.166;18.908;2022-11-11T13:03:06;99468.00;;;11.80;59.00
21401;BME280;18038;50.166;18.908;2022-11-11T13:05:58;99464.81;;;11.58;60.01
21401;BME280;18038;50.166;18.908;2022-11-11T13:08:52;99458.94;;;11.73;59.98
21401;BME280;18038;50.166;18.908;2022-11-11T13:11:42;99453.00;;;11.61;60.46
21401;BME280;18038;50.166;18.908;2022-11-11T13:14:47;99443.66;;;11.57;60.95
21401;BME280;18038;50.166;18.908;2022-11-11T13:17:24;99453.34;;;11.40;61.58
21401;BME280;18038;50.166;18.908;2022-11-11T13:19:55;99436.16;;;11.60;61.41
21401;BME280;18038;50.166;18.908;2022-11-11T13:22:29;99435.63;;;11.57;61.38
21401;BME280;18038;50.166;18.908;2022-11-11T13:24:57;99433.81;;;11.57;61.69
21401;BME280;18038;50.166;18.908;2022-11-11T13:27:39;99440.03;;;11.66;61.79